Aviation Digital Data Service (ADDS)

Output produced by METARs form (1338 UTC 19 December 2014)
found at http://www.aviationweather.gov/adds/metars/
 
KWWD 191335Z AUTO 30010G15KT 10SM OVC033 03/M04 A3008 RMK AO1